Time;durP1;ratioP1;P1;durP2;ratioP2;P2;SDS_P1;SDS_P2;PMS_P1;PMS_P2;Temp;Humidity;BMP_temperature;BMP_pressure;BME280_temperature;BME280_humidity;BME280_pressure;Samples;Min_cycle;Max_cycle;Signal;HPM_P1;HPM_P2
2022/12/14 00:01:27;;;;;;;57.27;23.65;;;;;;;-1.65;60.96;98849.27;4376245;81;44114;-80
2022/12/14 00:07:28;;;;;;;56.28;21.75;;;;;;;-1.72;60.96;98839.85;4373025;81;44488;-83
2022/12/14 00:13:30;;;;;;;47.80;20.80;;;;;;;-1.82;60.93;98833.39;4357302;81;43781;-80
2022/12/14 00:19:31;;;;;;;55.55;22.35;;;;;;;-1.83;60.45;98825.11;4363581;81;44125;-81
2022/12/14 00:25:32;;;;;;;53.60;22.50;;;;;;;-1.97;60.88;98827.86;4352774;81;44136;-84
2022/12/14 00:31:33;;;;;;;53.73;21.55;;;;;;;-2.06;61.26;98825.64;4331162;82;44097;-85
2022/12/14 00:37:35;;;;;;;54.08;22.22;;;;;;;-2.34;61.50;98827.11;4338732;81;44156;-79
2022/12/14 00:43:37;;;;;;;49.95;20.68;;;;;;;-2.35;61.57;98824.12;4323310;81;44442;-79
2022/12/14 00:49:39;;;;;;;50.60;21.15;;;;;;;-2.54;60.78;98817.23;4325737;81;44438;-79
2022/12/14 00:55:42;;;;;;;49.38;19.55;;;;;;;-2.80;60.72;98829.34;4385710;81;43752;-78
2022/12/14 01:01:43;;;;;;;48.13;19.87;;;;;;;-3.02;62.05;98829.78;4367245;80;43732;-77
2022/12/14 01:07:45;;;;;;;54.70;21.33;;;;;;;-2.99;61.62;98827.69;4335524;80;44144;-83
2022/12/14 01:13:46;;;;;;;48.98;19.70;;;;;;;-3.00;60.71;98823.88;4309628;81;44188;-83
2022/12/14 01:19:47;;;;;;;41.63;18.60;;;;;;;-3.22;61.66;98817.59;4369905;81;43745;-82
2022/12/14 01:25:48;;;;;;;46.02;19.12;;;;;;;-3.60;62.33;98817.28;4390588;81;43823;-82
2022/12/14 01:31:49;;;;;;;47.40;20.12;;;;;;;-3.46;61.86;98811.56;4389748;80;43776;-82
2022/12/14 01:37:50;;;;;;;47.95;19.92;;;;;;;-3.33;61.23;98813.85;4350853;80;43780;-82
2022/12/14 01:43:55;;;;;;;51.80;20.02;;;;;;;-3.39;59.89;98808.66;4341322;80;44068;-82
2022/12/14 01:50:02;;;;;;;44.07;19.30;;;;;;;-3.56;60.01;98796.33;4397168;81;28540;-82
2022/12/14 01:56:04;;;;;;;53.00;20.85;;;;;;;-3.79;60.38;98784.88;4324309;81;44100;-81
2022/12/14 02:02:06;;;;;;;41.90;20.25;;;;;;;-3.57;59.82;98790.73;4434869;80;43744;-83
2022/12/14 02:08:08;;;;;;;55.17;21.27;;;;;;;-3.77;59.21;98784.25;4435512;80;44102;-82
2022/12/14 02:14:09;;;;;;;52.43;21.57;;;;;;;-4.20;61.19;98776.80;4356762;81;44398;-78
2022/12/14 02:20:11;;;;;;;48.48;20.92;;;;;;;-4.33;61.56;98782.81;4329840;81;44086;-79
2022/12/14 02:26:26;;;;;;;52.25;21.68;;;;;;;-4.03;60.37;98778.31;4325382;82;44124;-79
2022/12/14 02:32:41;;;;;;;57.63;22.33;;;;;;;-4.22;58.89;98776.59;4285114;82;28506;-82
2022/12/14 02:38:58;;;;;;;52.65;21.12;;;;;;;-4.22;58.89;98776.59;4321193;81;44144;-84
2022/12/14 02:45:05;;;;;;;55.83;22.13;;;;;;;-4.17;59.39;98768.28;4303775;82;44175;-80
2022/12/14 02:51:22;;;;;;;54.25;21.45;;;;;;;-4.27;58.83;98772.23;4335117;80;44087;-81
2022/12/14 02:57:29;;;;;;;59.27;23.35;;;;;;;-4.00;58.48;98759.66;4302540;80;44126;-81
2022/12/14 03:03:30;;;;;;;59.93;23.12;;;;;;;-3.94;59.04;98755.63;4358535;80;44158;-82
2022/12/14 03:09:31;;;;;;;54.30;22.45;;;;;;;-3.84;59.96;98744.59;4438095;79;44269;-82
2022/12/14 03:15:34;;;;;;;58.52;23.18;;;;;;;-3.98;59.35;98748.99;4359383;80;44206;-80
2022/12/14 03:21:38;;;;;;;57.00;21.80;;;;;;;-3.96;58.28;98753.14;4320978;81;44496;-79
2022/12/14 03:27:51;;;;;;;42.17;17.03;;;;;;;-3.89;57.70;98755.20;4349871;81;28531;-81
2022/12/14 03:33:53;;;;;;;53.98;21.57;;;;;;;-3.95;58.01;98745.59;4333637;81;44143;-80
2022/12/14 03:39:55;;;;;;;52.90;21.12;;;;;;;-3.89;57.72;98750.75;4352366;81;44001;-81
2022/12/14 03:46:08;;;;;;;57.25;24.07;;;;;;;-3.88;58.53;98748.47;4352197;81;44120;-80
2022/12/14 03:52:13;;;;;;;51.37;21.33;;;;;;;-3.73;58.71;98740.93;4349778;81;44062;-80
2022/12/14 03:58:34;;;;;;;;;;;;;;;-3.86;59.52;98724.19;4336619;81;28537;-80
2022/12/14 04:04:56;;;;;;;50.78;20.57;;;;;;;-3.88;59.39;98726.64;4335292;81;44432;-81
2022/12/14 04:30:09;;;;;;;49.15;20.17;;;;;;;-3.94;59.21;98726.23;4372317;81;43744;-84
2022/12/14 04:36:12;;;;;;;52.78;20.10;;;;;;;-3.89;59.77;98712.67;4373926;80;44122;-86
2022/12/14 04:42:15;;;;;;;48.23;20.05;;;;;;;-3.77;60.18;98702.80;4332477;81;44415;-85
2022/12/14 04:48:22;;;;;;;52.60;21.90;;;;;;;-3.70;59.73;98710.91;4332342;81;44099;-83
2022/12/14 04:54:45;;;;;;;52.58;22.60;;;;;;;-3.60;59.18;98713.00;4324292;81;43939;-87
2022/12/14 05:00:55;;;;;;;54.20;22.27;;;;;;;-3.17;58.59;98709.80;4365937;80;44151;-78
2022/12/14 05:07:15;;;;;;;49.73;20.97;;;;;;;-3.39;59.26;98702.19;4328286;80;44478;-78
2022/12/14 05:13:28;;;;;;;57.30;21.87;;;;;;;-3.39;59.28;98694.30;4366919;81;44114;-77
2022/12/14 05:19:29;;;;;;;51.85;21.40;;;;;;;-3.43;59.43;98685.08;4319781;81;43855;-78
2022/12/14 05:25:30;;;;;;;49.88;20.65;;;;;;;-3.45;59.58;98667.80;4353651;80;44481;-79
2022/12/14 05:31:31;;;;;;;51.98;20.92;;;;;;;-3.62;60.61;98665.02;4370233;81;44060;-77
2022/12/14 05:37:32;;;;;;;51.23;21.37;;;;;;;-3.46;59.98;98663.52;4355992;80;43997;-76
2022/12/14 05:43:33;;;;;;;55.20;22.20;;;;;;;-3.61;59.77;98656.63;4426646;78;44162;-77
2022/12/14 05:49:35;;;;;;;57.58;23.42;;;;;;;-3.59;60.19;98655.99;4334040;80;44151;-75
2022/12/14 05:55:36;;;;;;;49.93;21.90;;;;;;;-3.52;60.91;98663.16;4344405;81;44480;-72
2022/12/14 06:01:37;;;;;;;47.33;19.85;;;;;;;-3.58;60.53;98658.98;4396697;81;43803;-75
2022/12/14 06:07:38;;;;;;;55.55;22.27;;;;;;;-3.77;62.06;98656.82;4398124;81;44084;-72
2022/12/14 06:13:40;;;;;;;51.30;20.48;;;;;;;-3.66;62.94;98664.48;4400715;81;44068;-72
2022/12/14 06:19:42;;;;;;;57.78;21.90;;;;;;;-3.68;62.98;98661.66;4401247;81;44143;-74
2022/12/14 06:25:43;;;;;;;48.42;19.65;;;;;;;-3.34;62.45;98660.99;4402196;81;44183;-75
2022/12/14 06:31:44;;;;;;;48.08;21.12;;;;;;;-3.39;62.31;98646.17;4395185;81;44154;-72
2022/12/14 06:37:46;;;;;;;47.33;19.73;;;;;;;-3.28;62.02;98641.16;4377529;80;43772;-72
2022/12/14 06:43:47;;;;;;;43.30;19.52;;;;;;;-3.38;62.30;98635.99;4372217;80;43769;-74
2022/12/14 06:49:49;;;;;;;42.27;18.05;;;;;;;-2.91;61.20;98640.13;4376727;80;44483;-82
2022/12/14 06:55:50;;;;;;;39.38;16.15;;;;;;;-3.30;61.48;98646.59;4443700;79;44526;-81
2022/12/14 07:01:51;;;;;;;45.75;18.02;;;;;;;-3.80;62.56;98643.48;4440590;79;43817;-81
2022/12/14 07:07:54;;;;;;;48.68;21.70;;;;;;;-3.22;61.59;98640.09;4351199;81;44467;-82
2022/12/14 07:13:56;;;;;;;51.60;22.05;;;;;;;-3.01;61.28;98647.30;4438670;80;43985;-84
2022/12/14 07:19:57;;;;;;;55.90;24.45;;;;;;;-3.39;61.56;98635.16;4439796;79;44154;-84
2022/12/14 07:26:03;;;;;;;57.15;23.35;;;;;;;-3.37;61.58;98636.33;4337919;80;44215;-79
2022/12/14 07:32:04;;;;;;;57.40;23.80;;;;;;;-3.01;60.94;98628.41;4358363;80;44120;-78
2022/12/14 07:38:05;;;;;;;58.63;23.70;;;;;;;-2.86;60.58;98620.78;4363050;81;44119;-79
2022/12/14 07:44:07;;;;;;;56.80;25.25;;;;;;;-2.62;60.32;98614.48;4366770;81;44135;-81
2022/12/14 07:50:09;;;;;;;57.85;24.55;;;;;;;-2.45;60.41;98618.02;4347517;80;44117;-81
2022/12/14 07:56:17;;;;;;;56.98;23.00;;;;;;;-2.75;60.62;98609.15;4307272;81;44149;-81
2022/12/14 08:02:21;;;;;;;60.88;25.52;;;;;;;-2.36;59.66;98609.68;4351869;80;43047;-81
2022/12/14 08:08:24;;;;;;;59.20;24.90;;;;;;;-1.57;58.67;98609.39;4345686;80;44068;-81
2022/12/14 08:14:27;;;;;;;58.92;25.00;;;;;;;-1.96;59.52;98595.80;4357823;81;44115;-80
2022/12/14 08:20:29;;;;;;;57.10;25.23;;;;;;;-2.08;60.24;98593.14;4346404;80;44229;-80
2022/12/14 08:26:30;;;;;;;53.13;23.05;;;;;;;-1.65;59.45;98594.39;4333110;81;44139;-82
2022/12/14 08:32:31;;;;;;;57.83;25.62;;;;;;;-2.20;60.59;98592.61;4356048;80;43232;-81
2022/12/14 08:38:32;;;;;;;63.68;27.62;;;;;;;-2.11;61.33;98581.63;4371714;81;43445;-83
2022/12/14 08:44:35;;;;;;;57.67;26.07;;;;;;;-2.54;62.98;98578.52;4374577;80;43213;-81
2022/12/14 08:50:36;;;;;;;52.40;24.98;;;;;;;-1.83;62.44;98585.28;4452227;78;44094;-82
2022/12/14 08:56:37;;;;;;;57.25;26.55;;;;;;;-1.78;61.36;98586.95;4444656;78;43543;-79
2022/12/14 09:02:38;;;;;;;62.35;25.88;;;;;;;-2.83;63.70;98578.84;4346114;80;42902;-80
2022/12/14 09:08:40;;;;;;;55.03;25.10;;;;;;;-2.73;63.25;98569.53;4447626;78;44145;-80
2022/12/14 09:14:45;;;;;;;61.10;25.00;;;;;;;-1.93;61.87;98560.89;4455339;79;43325;-80
2022/12/14 09:20:44;;;;;;;60.08;25.48;;;;;;;-1.96;62.06;98559.43;4401898;78;41718;-79
2022/12/14 09:26:46;;;;;;;51.20;24.00;;;;;;;-1.77;62.02;98561.41;4351291;81;44066;-80
2022/12/14 09:32:47;;;;;;;58.80;25.45;;;;;;;-1.32;60.88;98543.45;4460572;78;43656;-79
2022/12/14 09:38:49;;;;;;;48.95;20.17;;;;;;;-0.97;60.20;98537.95;4460457;78;43815;-77
2022/12/14 09:45:18;;;;;;;45.25;20.30;;;;;;;-1.94;60.85;98550.02;4382546;81;43771;-79
2022/12/14 09:51:24;;;;;;;52.27;21.82;;;;;;;-1.84;61.04;98530.93;4380865;81;43791;-79
2022/12/14 09:57:34;;;;;;;50.60;23.03;;;;;;;-1.72;61.12;98527.48;4447085;78;28545;-80
2022/12/14 10:03:57;;;;;;;49.85;21.93;;;;;;;-0.91;60.10;98520.14;4381306;80;44474;-79
2022/12/14 10:10:17;;;;;;;55.28;23.45;;;;;;;-0.60;59.31;98503.02;4377401;81;44084;-79
2022/12/14 10:16:37;;;;;;;48.83;21.23;;;;;;;0.52;57.12;98502.77;4364894;80;44499;-79
2022/12/14 10:22:41;;;;;;;52.25;22.60;;;;;;;-0.07;56.87;98502.39;4317700;80;43762;-79
2022/12/14 10:28:51;;;;;;;49.83;22.42;;;;;;;0.00;57.74;98494.61;4374998;81;44414;-85
2022/12/14 10:34:52;;;;;;;52.65;24.32;;;;;;;0.06;57.49;98497.05;4369317;80;44034;-87
2022/12/14 10:41:15;;;;;;;57.48;26.23;;;;;;;-0.16;57.75;98467.77;4363585;81;43220;-87
2022/12/14 10:47:32;;;;;;;47.80;21.02;;;;;;;-0.39;58.73;98472.53;4373763;80;44562;-83
2022/12/14 10:53:43;;;;;;;49.88;21.23;;;;;;;0.49;56.73;98486.77;4370883;81;44455;-84
2022/12/14 10:59:45;;;;;;;54.80;24.18;;;;;;;0.20;57.89;98468.50;4359900;81;44166;-85
2022/12/14 11:05:50;;;;;;;52.15;23.62;;;;;;;-0.19;58.01;98453.11;4367726;81;44032;-84
2022/12/14 11:12:00;;;;;;;40.88;17.67;;;;;;;-0.27;58.48;98451.83;4370147;81;28517;-85
2022/12/14 11:18:18;;;;;;;51.53;21.93;;;;;;;0.47;57.45;98433.72;4364135;80;43575;-83
2022/12/14 11:24:23;;;;;;;55.23;24.07;;;;;;;0.79;56.92;98425.12;4372299;80;44112;-84
2022/12/14 11:30:26;;;;;;;47.53;21.27;;;;;;;1.02;56.95;98407.81;4437754;79;28513;-86
2022/12/14 11:36:38;;;;;;;52.53;22.10;;;;;;;1.27;55.55;98413.30;4437936;80;43937;-83
2022/12/14 11:42:43;;;;;;;47.93;21.68;;;;;;;1.22;56.15;98403.27;4375270;81;43780;-83
2022/12/14 11:48:48;;;;;;;54.30;22.77;;;;;;;0.97;56.51;98384.54;4363415;81;28523;-82
2022/12/14 11:54:55;;;;;;;54.30;23.73;;;;;;;1.23;56.25;98396.95;4349618;81;50775;-83
2022/12/14 12:00:59;;;;;;;50.63;22.65;;;;;;;1.65;55.87;98394.03;4368768;81;44490;-82
2022/12/14 12:07:04;;;;;;;56.80;25.00;;;;;;;1.01;56.47;98378.37;4446922;79;43633;-83
2022/12/14 12:13:24;;;;;;;52.23;23.03;;;;;;;1.35;56.99;98367.64;4357621;80;28561;-82
2022/12/14 12:19:29;;;;;;;50.35;22.62;;;;;;;1.13;57.10;98360.69;4390780;79;44073;-82
2022/12/14 12:25:32;;;;;;;55.63;23.83;;;;;;;1.46;56.92;98362.86;4373363;81;28486;-84
2022/12/14 12:31:56;;;;;;;50.98;22.95;;;;;;;1.35;57.59;98346.45;4454096;78;44130;-83
2022/12/14 12:38:19;;;;;;;52.23;23.38;;;;;;;1.32;58.75;98338.89;4457032;79;44075;-83
2022/12/14 12:44:44;;;;;;;54.67;24.63;;;;;;;0.91;59.27;98323.06;4407333;79;44102;-82
2022/12/14 12:50:52;;;;;;;56.25;25.27;;;;;;;0.62;61.92;98308.87;4363214;81;43200;-82
2022/12/14 12:56:55;;;;;;;54.33;23.80;;;;;;;1.04;62.83;98285.83;4371662;81;44098;-80
2022/12/14 13:03:00;;;;;;;54.50;23.07;;;;;;;1.07;62.40;98281.50;4347343;80;44087;-77
2022/12/14 13:09:05;;;;;;;63.73;26.47;;;;;;;0.48;62.83;98271.37;4371276;80;34147;-76
2022/12/14 13:15:16;;;;;;;58.17;25.40;;;;;;;0.19;66.76;98265.09;4363326;81;28482;-75
2022/12/14 13:21:35;;;;;;;55.80;23.42;;;;;;;0.26;66.17;98258.91;4320896;81;44125;-75
2022/12/14 13:27:43;;;;;;;62.65;26.35;;;;;;;-0.05;66.17;98238.77;4357026;81;43226;-75
2022/12/14 13:34:04;;;;;;;68.00;29.35;;;;;;;-0.23;69.02;98232.50;4335222;80;44149;-75
2022/12/14 13:40:09;;;;;;;71.35;30.77;;;;;;;-0.33;72.01;98211.65;4347428;81;44163;-75
2022/12/14 13:46:15;;;;;;;59.83;25.48;;;;;;;0.30;72.67;98201.17;4353529;81;28521;-75
2022/12/14 13:52:26;;;;;;;63.50;27.82;;;;;;;-0.25;70.14;98190.12;4358273;80;43354;-76
2022/12/14 13:58:41;;;;;;;73.62;32.83;;;;;;;-0.03;69.57;98177.79;4363868;81;44087;-77
2022/12/14 14:04:42;;;;;;;70.78;30.17;;;;;;;0.31;70.52;98164.46;4368654;81;28490;-76
2022/12/14 14:10:43;;;;;;;62.35;28.32;;;;;;;-0.26;69.34;98149.66;4368101;81;43417;-77
2022/12/14 14:16:48;;;;;;;66.92;28.77;;;;;;;-0.23;69.86;98138.72;4325655;81;44105;-77
2022/12/14 14:23:14;;;;;;;68.65;28.12;;;;;;;-0.28;69.89;98129.21;4330672;80;28592;-78
2022/12/14 14:29:29;;;;;;;65.03;27.73;;;;;;;0.16;68.28;98114.78;4369297;81;43535;-75
2022/12/14 14:35:35;;;;;;;70.33;31.37;;;;;;;-0.07;68.94;98097.25;4364301;81;28534;-74
2022/12/14 14:41:40;;;;;;;69.75;30.30;;;;;;;-0.45;71.22;98086.33;4347951;80;44139;-75
2022/12/14 14:47:41;;;;;;;65.03;29.12;;;;;;;-0.32;73.39;98093.09;4352272;81;43461;-75
2022/12/14 14:53:42;;;;;;;69.87;29.85;;;;;;;-0.57;76.65;98072.77;4342735;81;44087;-74
2022/12/14 14:59:44;;;;;;;74.77;31.15;;;;;;;-0.73;78.69;98055.28;4326677;80;44129;-75
2022/12/14 15:05:45;;;;;;;77.78;29.60;;;;;;;-0.71;80.62;98037.44;4318704;81;43647;-75
2022/12/14 15:12:03;;;;;;;71.42;30.00;;;;;;;-0.53;80.27;98021.73;4350977;81;44119;-75
2022/12/14 15:18:22;;;;;;;73.60;30.48;;;;;;;-0.21;78.63;98009.92;4343462;80;44152;-81
2022/12/14 15:24:25;;;;;;;75.28;31.68;;;;;;;-0.08;79.02;97999.97;4334027;80;44118;-80
2022/12/14 15:30:28;;;;;;;69.77;30.52;;;;;;;-0.22;82.22;97987.12;4346919;80;44111;-79
2022/12/14 15:36:38;;;;;;;69.75;31.40;;;;;;;-0.50;81.99;97980.42;4352896;80;44100;-80
2022/12/14 15:42:47;;;;;;;59.80;25.40;;;;;;;-0.63;83.91;97972.66;4295352;82;28556;-79
2022/12/14 15:49:12;;;;;;;85.87;35.80;;;;;;;-0.72;84.30;97961.41;4332598;81;28608;-80
2022/12/14 15:55:32;;;;;;;75.40;31.95;;;;;;;-0.75;85.65;97947.75;4318890;81;28504;-80
2022/12/14 16:01:41;;;;;;;79.32;33.78;;;;;;;-0.65;84.54;97940.36;4330596;81;43119;-78
2022/12/14 16:07:46;;;;;;;75.40;32.05;;;;;;;-0.88;87.95;97932.08;4300768;82;44136;-77
2022/12/14 16:13:52;;;;;;;80.87;34.37;;;;;;;-0.49;87.52;97916.03;4312467;81;28526;-77
2022/12/14 16:19:58;;;;;;;81.57;35.43;;;;;;;-0.24;86.84;97901.16;4296753;81;43480;-80
2022/12/14 16:26:15;;;;;;;63.63;27.23;;;;;;;-0.19;88.84;97894.78;4275637;81;28492;-78
2022/12/14 16:32:20;;;;;;;82.57;35.05;;;;;;;-0.55;97.22;97891.72;4300775;81;43060;-78
2022/12/14 16:38:19;;;;;;;77.82;34.13;;;;;;;0.10;96.67;97884.55;4302953;78;42295;-78
2022/12/14 16:44:30;;;;;;;77.97;31.48;;;;;;;-0.24;100.00;97881.34;4449090;80;43680;-78
2022/12/14 16:50:32;;;;;;;73.50;31.90;;;;;;;0.25;94.75;97871.23;4368268;81;44108;-79
2022/12/14 16:56:46;;;;;;;67.22;29.48;;;;;;;0.74;92.40;97875.81;4350447;80;44135;-79
2022/12/14 17:02:48;;;;;;;65.92;28.90;;;;;;;0.94;92.24;97879.85;4454303;80;44153;-78
2022/12/14 17:08:50;;;;;;;66.72;30.57;;;;;;;1.18;89.37;97879.02;4426129;80;44136;-76
2022/12/14 17:14:52;;;;;;;69.85;31.05;;;;;;;1.58;90.73;97881.77;4424293;78;44057;-78
2022/12/14 17:20:53;;;;;;;72.45;31.55;;;;;;;1.75;87.18;97876.09;4445135;78;44174;-80
2022/12/14 17:26:57;;;;;;;67.22;30.62;;;;;;;1.94;86.60;97881.09;4432040;78;44096;-79
2022/12/14 17:33:00;;;;;;;71.42;32.00;;;;;;;2.13;85.06;97878.11;4433177;78;44106;-79
2022/12/14 17:39:02;;;;;;;65.62;29.92;;;;;;;2.28;84.33;97889.84;4439111;78;44135;-76
2022/12/14 17:45:04;;;;;;;77.12;32.10;;;;;;;2.22;83.21;97879.54;4439420;78;43578;-76
2022/12/14 17:51:05;;;;;;;68.62;30.75;;;;;;;2.55;82.61;97881.84;4404951;78;44104;-80
2022/12/14 17:57:19;;;;;;;72.90;29.82;;;;;;;2.46;83.19;97873.30;4432391;78;44239;-75
2022/12/14 18:03:20;;;;;;;63.80;29.75;;;;;;;2.58;82.79;97856.74;4345836;80;43395;-88
2022/12/14 18:09:21;;;;;;;68.67;30.20;;;;;;;2.60;79.46;97861.33;4366682;81;44141;-76
2022/12/14 18:15:29;;;;;;;67.82;29.42;;;;;;;2.84;80.20;97841.73;4353698;80;44166;-81
2022/12/14 18:21:31;;;;;;;64.53;27.58;;;;;;;2.92;78.73;97848.14;4368576;81;43395;-81
2022/12/14 18:27:32;;;;;;;59.00;26.80;;;;;;;3.02;78.91;97825.11;4356733;81;43038;-85
2022/12/14 18:33:38;;;;;;;61.40;27.22;;;;;;;3.00;76.69;97826.67;4359537;81;43478;-81
2022/12/14 18:39:39;;;;;;;59.08;26.65;;;;;;;2.56;79.78;97820.31;4350440;80;42799;-79
2022/12/14 18:45:42;;;;;;;60.38;26.75;;;;;;;2.32;82.51;97804.04;4329906;81;43509;-78
2022/12/14 18:51:44;;;;;;;50.20;24.92;;;;;;;2.39;83.54;97795.56;4313397;82;42847;-86
2022/12/14 18:57:48;;;;;;;55.58;24.92;;;;;;;2.46;85.07;97783.59;4323376;82;44167;-80
2022/12/14 19:03:50;;;;;;;47.55;23.25;;;;;;;2.59;83.65;97776.91;4327966;81;44443;-79
2022/12/14 19:09:52;;;;;;;49.90;24.25;;;;;;;2.45;84.50;97767.37;4328212;82;44448;-79
2022/12/14 19:15:53;;;;;;;48.08;22.22;;;;;;;2.24;87.00;97758.67;4338439;82;44467;-80
2022/12/14 19:21:54;;;;;;;46.10;19.85;;;;;;;2.54;86.88;97756.84;4340780;81;43771;-82
2022/12/14 19:27:55;;;;;;;39.83;18.00;;;;;;;2.52;87.97;97735.02;4345395;82;44518;-82
2022/12/14 19:33:58;;;;;;;37.05;18.87;;;;;;;2.22;89.19;97729.70;4338882;82;44502;-84
2022/12/14 19:40:01;;;;;;;43.38;19.57;;;;;;;2.44;88.50;97722.78;4338971;80;43896;-84
2022/12/14 19:46:09;;;;;;;38.08;18.82;;;;;;;2.46;88.35;97718.09;4365539;80;44462;-87
2022/12/14 19:52:11;;;;;;;46.13;21.37;;;;;;;2.49;88.43;97701.75;4363874;80;43786;-86
2022/12/14 19:58:13;;;;;;;41.37;19.62;;;;;;;2.27;90.91;97708.38;4382732;80;43712;-86
2022/12/14 20:04:15;;;;;;;49.67;21.27;;;;;;;2.49;89.59;97712.86;4391040;80;44465;-78
2022/12/14 20:10:17;;;;;;;43.75;21.70;;;;;;;2.43;88.65;97693.30;4371963;80;43771;-78
2022/12/14 20:16:20;;;;;;;45.52;23.20;;;;;;;2.35;90.85;97690.91;4379559;80;44142;-88
2022/12/14 20:22:21;;;;;;;47.67;21.95;;;;;;;2.40;92.70;97686.30;4376405;80;44450;-89
2022/12/14 20:28:22;;;;;;;44.27;21.05;;;;;;;2.31;92.14;97691.84;4369854;80;43725;-89
2022/12/14 20:34:23;;;;;;;39.88;17.37;;;;;;;2.61;90.99;97711.19;4432468;79;44461;-90
2022/12/14 20:40:24;;;;;;;35.55;17.07;;;;;;;2.40;90.80;97694.26;4458320;78;44485;-90
2022/12/14 20:46:34;;;;;;;34.95;17.20;;;;;;;2.71;88.61;97692.64;4455965;80;44326;-90
2022/12/14 20:52:35;;;;;;;30.72;15.50;;;;;;;2.93;88.66;97692.63;4466212;78;44142;-90
2022/12/14 20:58:36;;;;;;;30.77;14.73;;;;;;;2.87;87.72;97694.00;4435308;78;44137;-89
2022/12/14 21:04:38;;;;;;;30.65;13.93;;;;;;;2.88;88.37;97697.74;4360662;81;44068;-89
2022/12/14 21:10:41;;;;;;;30.68;14.47;;;;;;;3.04;86.86;97702.25;4383780;80;44099;-87
2022/12/14 21:16:42;;;;;;;27.35;13.45;;;;;;;3.13;87.32;97690.84;4376919;80;28554;-87
2022/12/14 21:22:43;;;;;;;27.77;13.50;;;;;;;2.92;88.51;97708.25;4343168;81;43387;-87
2022/12/14 21:28:45;;;;;;;26.17;11.97;;;;;;;2.98;88.96;97699.95;4375911;81;28623;-88
2022/12/14 21:34:47;;;;;;;24.70;12.10;;;;;;;3.03;88.73;97701.95;4455560;78;28517;-88
2022/12/14 21:47:16;;;;;;;23.85;12.18;;;;;;;2.99;87.86;97720.16;4340983;82;43780;-91
2022/12/14 21:53:19;;;;;;;23.60;11.03;;;;;;;3.03;88.46;97720.55;4401939;81;28506;-90
2022/12/14 21:59:27;;;;;;;19.87;9.60;;;;;;;3.33;86.97;97716.73;4395807;81;43989;-90
2022/12/14 22:05:28;;;;;;;19.52;10.48;;;;;;;3.31;87.16;97716.14;4391645;81;44430;-86
2022/12/14 22:11:29;;;;;;;22.05;11.10;;;;;;;3.42;86.28;97720.45;4365951;81;28508;-87
2022/12/14 22:17:31;;;;;;;20.68;10.30;;;;;;;3.67;85.13;97713.80;4357918;81;44452;-80
2022/12/14 22:23:33;;;;;;;20.12;10.20;;;;;;;3.61;84.06;97724.80;4397454;81;44494;-85
2022/12/14 22:29:34;;;;;;;20.75;10.38;;;;;;;3.75;84.73;97710.03;4408622;81;44466;-86
2022/12/14 22:35:36;;;;;;;23.22;10.82;;;;;;;3.73;83.60;97713.44;4398911;81;44506;-87
2022/12/14 22:41:37;;;;;;;18.20;10.03;;;;;;;3.74;83.59;97714.53;4441728;79;28536;-85
2022/12/14 22:47:38;;;;;;;21.20;10.78;;;;;;;3.90;81.71;97722.48;4423274;80;28573;-87
2022/12/14 22:53:40;;;;;;;22.75;11.15;;;;;;;3.79;82.14;97704.56;4430686;79;28488;-85
2022/12/14 22:59:48;;;;;;;18.62;10.48;;;;;;;4.09;80.79;97701.19;4353898;80;28588;-83
2022/12/14 23:05:51;;;;;;;21.65;11.30;;;;;;;4.02;80.75;97707.12;4428123;79;28534;-86
